sensor_id;sensor_type;location;lat;lon;timestamp;P1;durP1;ratioP1;P2;durP2;ratioP2
76475;SDS011;65308;50.078;14.854;2024-01-30T00:01:37;25.80;;;12.82;;
76475;SDS011;65308;50.078;14.854;2024-01-30T00:04:03;31.52;;;13.30;;
76475;SDS011;65308;50.078;14.854;2024-01-30T00:06:30;30.27;;;13.00;;
76475;SDS011;65308;50.078;14.854;2024-01-30T00:08:57;34.65;;;13.85;;
76475;SDS011;65308;50.078;14.854;2024-01-30T00:11:24;32.03;;;13.35;;
76475;SDS011;65308;50.078;14.854;2024-01-30T00:13:51;29.73;;;13.98;;
76475;SDS011;65308;50.078;14.854;2024-01-30T00:16:21;32.80;;;14.85;;
76475;SDS011;65308;50.078;14.854;2024-01-30T00:18:50;29.75;;;13.93;;
76475;SDS011;65308;50.078;14.854;2024-01-30T00:21:17;32.70;;;13.88;;
76475;SDS011;65308;50.078;14.854;2024-01-30T00:23:44;33.50;;;13.48;;
76475;SDS011;65308;50.078;14.854;2024-01-30T00:26:10;30.20;;;13.40;;
76475;SDS011;65308;50.078;14.854;2024-01-30T00:28:37;31.42;;;13.88;;
76475;SDS011;65308;50.078;14.854;2024-01-30T00:31:04;36.60;;;15.10;;
76475;SDS011;65308;50.078;14.854;2024-01-30T00:33:30;32.63;;;14.35;;
76475;SDS011;65308;50.078;14.854;2024-01-30T00:35:58;33.42;;;15.00;;
76475;SDS011;65308;50.078;14.854;2024-01-30T00:38:25;30.33;;;14.75;;
76475;SDS011;65308;50.078;14.854;2024-01-30T00:40:51;39.40;;;14.10;;
76475;SDS011;65308;50.078;14.854;2024-01-30T00:43:18;29.85;;;13.23;;
76475;SDS011;65308;50.078;14.854;2024-01-30T00:45:46;32.10;;;12.95;;
76475;SDS011;65308;50.078;14.854;2024-01-30T00:48:12;29.70;;;14.63;;
76475;SDS011;65308;50.078;14.854;2024-01-30T00:50:39;28.10;;;14.05;;
76475;SDS011;65308;50.078;14.854;2024-01-30T00:53:07;34.03;;;13.57;;
76475;SDS011;65308;50.078;14.854;2024-01-30T00:55:34;33.03;;;14.23;;
76475;SDS011;65308;50.078;14.854;2024-01-30T00:58:00;28.20;;;13.85;;
76475;SDS011;65308;50.078;14.854;2024-01-30T01:00:28;32.47;;;13.80;;
76475;SDS011;65308;50.078;14.854;2024-01-30T01:02:54;27.42;;;13.75;;
76475;SDS011;65308;50.078;14.854;2024-01-30T01:05:23;34.15;;;14.70;;
76475;SDS011;65308;50.078;14.854;2024-01-30T01:07:51;30.50;;;13.23;;
76475;SDS011;65308;50.078;14.854;2024-01-30T01:10:19;34.25;;;14.45;;
76475;SDS011;65308;50.078;14.854;2024-01-30T01:12:46;30.25;;;13.43;;
76475;SDS011;65308;50.078;14.854;2024-01-30T01:15:14;29.42;;;12.55;;
76475;SDS011;65308;50.078;14.854;2024-01-30T01:17:41;27.55;;;11.32;;
76475;SDS011;65308;50.078;14.854;2024-01-30T01:20:08;26.95;;;11.10;;
76475;SDS011;65308;50.078;14.854;2024-01-30T01:22:35;30.98;;;11.02;;
76475;SDS011;65308;50.078;14.854;2024-01-30T01:27:33;23.30;;;9.57;;
76475;SDS011;65308;50.078;14.854;2024-01-30T01:30:05;27.23;;;10.43;;
76475;SDS011;65308;50.078;14.854;2024-01-30T01:32:34;28.52;;;11.32;;
76475;SDS011;65308;50.078;14.854;2024-01-30T01:35:01;24.77;;;11.15;;
76475;SDS011;65308;50.078;14.854;2024-01-30T01:37:30;21.90;;;10.43;;
76475;SDS011;65308;50.078;14.854;2024-01-30T01:39:57;26.35;;;10.55;;
76475;SDS011;65308;50.078;14.854;2024-01-30T01:42:23;24.95;;;11.27;;
76475;SDS011;65308;50.078;14.854;2024-01-30T01:44:51;25.80;;;10.43;;
76475;SDS011;65308;50.078;14.854;2024-01-30T01:47:18;28.95;;;12.35;;
76475;SDS011;65308;50.078;14.854;2024-01-30T01:49:45;30.77;;;12.10;;
76475;SDS011;65308;50.078;14.854;2024-01-30T01:52:11;31.95;;;14.60;;
76475;SDS011;65308;50.078;14.854;2024-01-30T01:54:38;34.05;;;14.20;;
76475;SDS011;65308;50.078;14.854;2024-01-30T01:57:05;32.15;;;14.20;;
76475;SDS011;65308;50.078;14.854;2024-01-30T01:59:32;35.08;;;13.93;;
76475;SDS011;65308;50.078;14.854;2024-01-30T02:02:00;30.92;;;11.65;;
76475;SDS011;65308;50.078;14.854;2024-01-30T02:04:28;26.48;;;11.27;;
76475;SDS011;65308;50.078;14.854;2024-01-30T02:06:55;33.13;;;13.15;;
76475;SDS011;65308;50.078;14.854;2024-01-30T02:09:21;25.17;;;12.00;;
76475;SDS011;65308;50.078;14.854;2024-01-30T02:11:48;26.05;;;10.93;;
76475;SDS011;65308;50.078;14.854;2024-01-30T02:14:15;24.40;;;9.57;;
76475;SDS011;65308;50.078;14.854;2024-01-30T02:16:41;20.65;;;9.15;;
76475;SDS011;65308;50.078;14.854;2024-01-30T02:19:09;24.42;;;9.73;;
76475;SDS011;65308;50.078;14.854;2024-01-30T02:21:37;22.52;;;9.60;;
76475;SDS011;65308;50.078;14.854;2024-01-30T02:24:05;18.65;;;8.93;;
76475;SDS011;65308;50.078;14.854;2024-01-30T02:26:32;26.80;;;10.77;;
76475;SDS011;65308;50.078;14.854;2024-01-30T02:28:58;24.52;;;9.27;;
76475;SDS011;65308;50.078;14.854;2024-01-30T02:31:25;25.77;;;10.93;;
76475;SDS011;65308;50.078;14.854;2024-01-30T02:33:52;21.63;;;9.45;;
76475;SDS011;65308;50.078;14.854;2024-01-30T02:36:18;20.92;;;8.90;;
76475;SDS011;65308;50.078;14.854;2024-01-30T02:38:46;18.80;;;9.75;;
76475;SDS011;65308;50.078;14.854;2024-01-30T02:43:39;23.98;;;9.18;;
76475;SDS011;65308;50.078;14.854;2024-01-30T02:46:06;22.95;;;8.98;;
76475;SDS011;65308;50.078;14.854;2024-01-30T02:48:32;21.98;;;9.65;;
76475;SDS011;65308;50.078;14.854;2024-01-30T02:50:59;20.85;;;9.40;;
76475;SDS011;65308;50.078;14.854;2024-01-30T02:53:26;21.95;;;9.02;;
76475;SDS011;65308;50.078;14.854;2024-01-30T02:55:54;18.42;;;9.55;;
76475;SDS011;65308;50.078;14.854;2024-01-30T02:58:20;19.92;;;9.00;;
76475;SDS011;65308;50.078;14.854;2024-01-30T03:00:47;19.70;;;8.88;;
76475;SDS011;65308;50.078;14.854;2024-01-30T03:03:13;21.10;;;8.73;;
76475;SDS011;65308;50.078;14.854;2024-01-30T03:05:40;24.08;;;10.25;;
76475;SDS011;65308;50.078;14.854;2024-01-30T03:08:07;20.58;;;8.95;;
76475;SDS011;65308;50.078;14.854;2024-01-30T03:10:34;22.45;;;8.90;;
76475;SDS011;65308;50.078;14.854;2024-01-30T03:13:02;17.48;;;8.95;;
76475;SDS011;65308;50.078;14.854;2024-01-30T03:15:29;17.60;;;8.52;;
76475;SDS011;65308;50.078;14.854;2024-01-30T03:17:56;20.00;;;9.45;;
76475;SDS011;65308;50.078;14.854;2024-01-30T03:20:22;20.60;;;9.25;;
76475;SDS011;65308;50.078;14.854;2024-01-30T03:22:49;25.92;;;9.02;;
76475;SDS011;65308;50.078;14.854;2024-01-30T03:25:16;20.67;;;9.00;;
76475;SDS011;65308;50.078;14.854;2024-01-30T03:27:42;22.23;;;9.02;;
76475;SDS011;65308;50.078;14.854;2024-01-30T03:30:10;20.67;;;9.07;;
76475;SDS011;65308;50.078;14.854;2024-01-30T03:32:37;20.20;;;9.18;;
76475;SDS011;65308;50.078;14.854;2024-01-30T03:35:04;24.67;;;9.35;;
76475;SDS011;65308;50.078;14.854;2024-01-30T03:37:31;21.83;;;9.18;;
76475;SDS011;65308;50.078;14.854;2024-01-30T03:39:58;22.27;;;9.35;;
76475;SDS011;65308;50.078;14.854;2024-01-30T03:42:25;22.83;;;9.35;;
76475;SDS011;65308;50.078;14.854;2024-01-30T03:44:51;19.05;;;9.20;;
76475;SDS011;65308;50.078;14.854;2024-01-30T03:47:20;19.13;;;8.88;;
76475;SDS011;65308;50.078;14.854;2024-01-30T03:49:47;18.05;;;7.65;;
76475;SDS011;65308;50.078;14.854;2024-01-30T03:52:15;19.02;;;7.72;;
76475;SDS011;65308;50.078;14.854;2024-01-30T03:54:41;18.33;;;8.35;;
76475;SDS011;65308;50.078;14.854;2024-01-30T03:57:08;17.33;;;8.20;;
76475;SDS011;65308;50.078;14.854;2024-01-30T03:59:34;18.60;;;7.88;;
76475;SDS011;65308;50.078;14.854;2024-01-30T04:02:01;20.95;;;8.40;;
76475;SDS011;65308;50.078;14.854;2024-01-30T04:04:29;21.35;;;9.55;;
76475;SDS011;65308;50.078;14.854;2024-01-30T04:06:55;20.00;;;8.63;;
76475;SDS011;65308;50.078;14.854;2024-01-30T04:09:22;19.48;;;8.93;;
76475;SDS011;65308;50.078;14.854;2024-01-30T04:11:49;20.95;;;8.77;;
76475;SDS011;65308;50.078;14.854;2024-01-30T04:14:15;23.25;;;9.32;;
76475;SDS011;65308;50.078;14.854;2024-01-30T04:16:42;20.35;;;8.20;;
76475;SDS011;65308;50.078;14.854;2024-01-30T04:19:09;19.98;;;8.45;;
76475;SDS011;65308;50.078;14.854;2024-01-30T04:21:37;23.30;;;8.85;;
76475;SDS011;65308;50.078;14.854;2024-01-30T04:24:04;21.45;;;8.65;;
76475;SDS011;65308;50.078;14.854;2024-01-30T04:26:31;27.70;;;9.95;;
76475;SDS011;65308;50.078;14.854;2024-01-30T04:28:58;43.00;;;10.43;;
76475;SDS011;65308;50.078;14.854;2024-01-30T04:31:24;25.92;;;8.65;;
76475;SDS011;65308;50.078;14.854;2024-01-30T04:33:51;21.25;;;9.20;;
76475;SDS011;65308;50.078;14.854;2024-01-30T04:36:17;21.02;;;9.38;;
76475;SDS011;65308;50.078;14.854;2024-01-30T04:38:45;25.75;;;9.13;;
76475;SDS011;65308;50.078;14.854;2024-01-30T04:41:12;26.05;;;9.30;;
76475;SDS011;65308;50.078;14.854;2024-01-30T04:43:39;24.85;;;9.63;;
76475;SDS011;65308;50.078;14.854;2024-01-30T04:46:05;23.10;;;9.30;;
76475;SDS011;65308;50.078;14.854;2024-01-30T04:48:32;21.33;;;8.80;;
76475;SDS011;65308;50.078;14.854;2024-01-30T04:50:59;18.27;;;8.43;;
76475;SDS011;65308;50.078;14.854;2024-01-30T04:53:28;19.73;;;9.73;;
76475;SDS011;65308;50.078;14.854;2024-01-30T04:55:57;23.48;;;9.43;;
76475;SDS011;65308;50.078;14.854;2024-01-30T04:58:23;20.92;;;9.38;;
76475;SDS011;65308;50.078;14.854;2024-01-30T05:00:50;21.52;;;8.63;;
76475;SDS011;65308;50.078;14.854;2024-01-30T05:03:17;19.45;;;8.65;;
76475;SDS011;65308;50.078;14.854;2024-01-30T05:05:43;20.75;;;9.43;;
76475;SDS011;65308;50.078;14.854;2024-01-30T05:08:10;20.85;;;9.20;;
76475;SDS011;65308;50.078;14.854;2024-01-30T05:10:37;24.92;;;9.43;;
76475;SDS011;65308;50.078;14.854;2024-01-30T05:13:05;19.08;;;8.85;;
76475;SDS011;65308;50.078;14.854;2024-01-30T05:15:31;22.55;;;8.93;;
76475;SDS011;65308;50.078;14.854;2024-01-30T05:17:58;18.50;;;8.48;;
76475;SDS011;65308;50.078;14.854;2024-01-30T05:20:24;21.38;;;9.77;;
76475;SDS011;65308;50.078;14.854;2024-01-30T05:22:53;18.80;;;8.48;;
76475;SDS011;65308;50.078;14.854;2024-01-30T05:25:19;22.17;;;9.30;;
76475;SDS011;65308;50.078;14.854;2024-01-30T05:27:46;20.20;;;8.27;;
76475;SDS011;65308;50.078;14.854;2024-01-30T05:30:14;20.08;;;8.60;;
76475;SDS011;65308;50.078;14.854;2024-01-30T05:32:41;19.17;;;8.98;;
76475;SDS011;65308;50.078;14.854;2024-01-30T05:35:08;22.35;;;9.73;;
76475;SDS011;65308;50.078;14.854;2024-01-30T05:37:35;22.80;;;9.75;;
76475;SDS011;65308;50.078;14.854;2024-01-30T05:40:01;26.90;;;9.35;;
76475;SDS011;65308;50.078;14.854;2024-01-30T05:42:29;24.15;;;9.43;;
76475;SDS011;65308;50.078;14.854;2024-01-30T05:44:56;20.10;;;8.52;;
76475;SDS011;65308;50.078;14.854;2024-01-30T05:47:24;22.27;;;8.93;;
76475;SDS011;65308;50.078;14.854;2024-01-30T05:49:51;21.95;;;9.50;;
76475;SDS011;65308;50.078;14.854;2024-01-30T05:52:18;27.25;;;10.40;;
76475;SDS011;65308;50.078;14.854;2024-01-30T05:54:45;23.13;;;9.93;;
76475;SDS011;65308;50.078;14.854;2024-01-30T05:57:11;31.83;;;10.30;;
76475;SDS011;65308;50.078;14.854;2024-01-30T05:59:38;23.10;;;9.15;;
76475;SDS011;65308;50.078;14.854;2024-01-30T06:02:04;24.13;;;9.70;;
76475;SDS011;65308;50.078;14.854;2024-01-30T06:04:32;22.98;;;9.40;;
76475;SDS011;65308;50.078;14.854;2024-01-30T06:06:59;23.13;;;9.55;;
76475;SDS011;65308;50.078;14.854;2024-01-30T06:09:27;21.88;;;9.20;;
76475;SDS011;65308;50.078;14.854;2024-01-30T06:11:54;18.35;;;8.52;;
76475;SDS011;65308;50.078;14.854;2024-01-30T06:14:21;18.33;;;7.85;;
76475;SDS011;65308;50.078;14.854;2024-01-30T06:16:49;21.52;;;9.10;;
76475;SDS011;65308;50.078;14.854;2024-01-30T06:19:16;23.30;;;9.38;;
76475;SDS011;65308;50.078;14.854;2024-01-30T06:21:44;19.50;;;8.90;;
76475;SDS011;65308;50.078;14.854;2024-01-30T06:26:37;20.10;;;7.95;;
76475;SDS011;65308;50.078;14.854;2024-01-30T06:29:03;19.08;;;8.55;;
76475;SDS011;65308;50.078;14.854;2024-01-30T06:31:30;15.68;;;7.47;;
76475;SDS011;65308;50.078;14.854;2024-01-30T06:33:56;19.77;;;8.07;;
76475;SDS011;65308;50.078;14.854;2024-01-30T06:36:23;17.95;;;8.05;;
76475;SDS011;65308;50.078;14.854;2024-01-30T06:38:52;17.08;;;7.70;;
76475;SDS011;65308;50.078;14.854;2024-01-30T06:41:18;19.95;;;8.27;;
76475;SDS011;65308;50.078;14.854;2024-01-30T06:43:45;17.08;;;7.82;;
76475;SDS011;65308;50.078;14.854;2024-01-30T06:46:11;21.38;;;9.05;;
76475;SDS011;65308;50.078;14.854;2024-01-30T06:48:39;19.67;;;7.30;;
76475;SDS011;65308;50.078;14.854;2024-01-30T06:51:06;18.48;;;7.55;;
76475;SDS011;65308;50.078;14.854;2024-01-30T06:53:33;19.02;;;7.72;;
76475;SDS011;65308;50.078;14.854;2024-01-30T06:56:02;18.10;;;7.15;;
76475;SDS011;65308;50.078;14.854;2024-01-30T06:58:28;17.10;;;6.85;;
76475;SDS011;65308;50.078;14.854;2024-01-30T07:00:55;18.60;;;7.50;;
76475;SDS011;65308;50.078;14.854;2024-01-30T07:03:22;18.30;;;7.90;;
76475;SDS011;65308;50.078;14.854;2024-01-30T07:05:49;19.83;;;7.85;;
76475;SDS011;65308;50.078;14.854;2024-01-30T07:08:16;18.38;;;7.80;;
76475;SDS011;65308;50.078;14.854;2024-01-30T07:10:43;17.83;;;8.10;;
76475;SDS011;65308;50.078;14.854;2024-01-30T07:13:11;21.48;;;8.55;;
76475;SDS011;65308;50.078;14.854;2024-01-30T07:15:38;25.98;;;9.07;;
76475;SDS011;65308;50.078;14.854;2024-01-30T07:18:05;19.77;;;8.60;;
76475;SDS011;65308;50.078;14.854;2024-01-30T07:20:31;19.70;;;9.48;;
76475;SDS011;65308;50.078;14.854;2024-01-30T07:22:58;25.85;;;10.00;;
76475;SDS011;65308;50.078;14.854;2024-01-30T07:25:25;25.35;;;10.52;;
76475;SDS011;65308;50.078;14.854;2024-01-30T07:27:54;21.55;;;10.70;;
76475;SDS011;65308;50.078;14.854;2024-01-30T07:30:22;25.65;;;10.68;;
76475;SDS011;65308;50.078;14.854;2024-01-30T07:32:49;19.52;;;9.68;;
76475;SDS011;65308;50.078;14.854;2024-01-30T07:35:16;24.40;;;10.40;;
76475;SDS011;65308;50.078;14.854;2024-01-30T07:37:42;26.55;;;11.45;;
76475;SDS011;65308;50.078;14.854;2024-01-30T07:40:10;28.08;;;10.80;;
76475;SDS011;65308;50.078;14.854;2024-01-30T07:42:36;27.23;;;11.60;;
76475;SDS011;65308;50.078;14.854;2024-01-30T07:45:03;28.70;;;11.73;;
76475;SDS011;65308;50.078;14.854;2024-01-30T07:47:32;25.65;;;11.52;;
76475;SDS011;65308;50.078;14.854;2024-01-30T07:50:01;30.65;;;12.80;;
76475;SDS011;65308;50.078;14.854;2024-01-30T07:52:28;29.83;;;12.40;;
76475;SDS011;65308;50.078;14.854;2024-01-30T07:58:25;21.77;;;11.57;;
76475;SDS011;65308;50.078;14.854;2024-01-30T08:00:53;20.65;;;11.55;;
76475;SDS011;65308;50.078;14.854;2024-01-30T08:03:23;20.80;;;10.63;;
76475;SDS011;65308;50.078;14.854;2024-01-30T08:05:56;21.60;;;10.93;;
76475;SDS011;65308;50.078;14.854;2024-01-30T08:08:23;18.83;;;10.80;;
76475;SDS011;65308;50.078;14.854;2024-01-30T08:10:50;18.65;;;10.50;;
76475;SDS011;65308;50.078;14.854;2024-01-30T08:13:17;20.45;;;10.50;;
76475;SDS011;65308;50.078;14.854;2024-01-30T08:15:44;19.52;;;10.07;;
76475;SDS011;65308;50.078;14.854;2024-01-30T08:18:11;17.45;;;10.45;;
76475;SDS011;65308;50.078;14.854;2024-01-30T08:20:39;22.15;;;11.60;;
76475;SDS011;65308;50.078;14.854;2024-01-30T08:23:06;20.33;;;11.10;;
76475;SDS011;65308;50.078;14.854;2024-01-30T08:25:32;21.55;;;10.73;;
76475;SDS011;65308;50.078;14.854;2024-01-30T08:27:59;20.50;;;11.63;;
76475;SDS011;65308;50.078;14.854;2024-01-30T08:30:26;27.63;;;12.20;;
76475;SDS011;65308;50.078;14.854;2024-01-30T08:32:53;20.63;;;11.75;;
76475;SDS011;65308;50.078;14.854;2024-01-30T08:35:20;21.08;;;11.38;;
76475;SDS011;65308;50.078;14.854;2024-01-30T08:37:48;17.73;;;10.88;;
76475;SDS011;65308;50.078;14.854;2024-01-30T08:40:15;21.58;;;12.43;;
76475;SDS011;65308;50.078;14.854;2024-01-30T08:42:41;21.02;;;12.02;;
76475;SDS011;65308;50.078;14.854;2024-01-30T08:45:09;20.85;;;11.65;;
76475;SDS011;65308;50.078;14.854;2024-01-30T08:47:36;21.63;;;12.77;;
76475;SDS011;65308;50.078;14.854;2024-01-30T08:50:03;18.58;;;11.52;;
76475;SDS011;65308;50.078;14.854;2024-01-30T08:52:30;20.70;;;12.73;;
76475;SDS011;65308;50.078;14.854;2024-01-30T08:54:59;20.85;;;12.45;;
76475;SDS011;65308;50.078;14.854;2024-01-30T08:57:26;21.63;;;12.68;;
76475;SDS011;65308;50.078;14.854;2024-01-30T08:59:53;19.42;;;12.20;;
76475;SDS011;65308;50.078;14.854;2024-01-30T09:02:20;21.25;;;13.20;;
76475;SDS011;65308;50.078;14.854;2024-01-30T09:04:47;24.13;;;14.20;;
76475;SDS011;65308;50.078;14.854;2024-01-30T09:07:13;21.05;;;13.35;;
76475;SDS011;65308;50.078;14.854;2024-01-30T09:09:40;19.15;;;12.80;;
76475;SDS011;65308;50.078;14.854;2024-01-30T09:12:09;20.38;;;13.55;;
76475;SDS011;65308;50.078;14.854;2024-01-30T09:14:37;23.40;;;13.95;;
76475;SDS011;65308;50.078;14.854;2024-01-30T09:17:04;22.35;;;13.13;;
76475;SDS011;65308;50.078;14.854;2024-01-30T09:19:31;23.58;;;14.10;;
76475;SDS011;65308;50.078;14.854;2024-01-30T09:21:57;21.65;;;13.32;;
76475;SDS011;65308;50.078;14.854;2024-01-30T09:24:25;25.83;;;14.38;;
76475;SDS011;65308;50.078;14.854;2024-01-30T09:26:52;24.70;;;14.07;;
76475;SDS011;65308;50.078;14.854;2024-01-30T09:29:21;25.05;;;13.68;;
76475;SDS011;65308;50.078;14.854;2024-01-30T09:31:47;22.77;;;14.00;;
76475;SDS011;65308;50.078;14.854;2024-01-30T09:34:14;25.00;;;13.52;;
76475;SDS011;65308;50.078;14.854;2024-01-30T09:36:41;23.40;;;13.07;;
76475;SDS011;65308;50.078;14.854;2024-01-30T09:39:08;24.90;;;13.65;;
76475;SDS011;65308;50.078;14.854;2024-01-30T09:41:36;23.17;;;13.07;;
76475;SDS011;65308;50.078;14.854;2024-01-30T09:44:11;20.85;;;13.02;;
76475;SDS011;65308;50.078;14.854;2024-01-30T09:46:40;21.58;;;12.38;;
76475;SDS011;65308;50.078;14.854;2024-01-30T09:49:08;21.60;;;12.82;;
76475;SDS011;65308;50.078;14.854;2024-01-30T09:54:02;23.95;;;12.65;;
76475;SDS011;65308;50.078;14.854;2024-01-30T09:56:29;25.33;;;12.63;;
76475;SDS011;65308;50.078;14.854;2024-01-30T09:58:56;24.85;;;13.65;;
76475;SDS011;65308;50.078;14.854;2024-01-30T10:01:22;25.42;;;12.85;;
76475;SDS011;65308;50.078;14.854;2024-01-30T10:03:51;22.02;;;13.15;;
76475;SDS011;65308;50.078;14.854;2024-01-30T10:06:18;27.48;;;13.15;;
76475;SDS011;65308;50.078;14.854;2024-01-30T10:11:12;21.90;;;11.55;;
76475;SDS011;65308;50.078;14.854;2024-01-30T10:13:39;21.52;;;11.60;;
76475;SDS011;65308;50.078;14.854;2024-01-30T10:16:06;24.10;;;12.40;;
76475;SDS011;65308;50.078;14.854;2024-01-30T10:18:33;27.02;;;12.70;;
76475;SDS011;65308;50.078;14.854;2024-01-30T10:21:01;22.85;;;13.30;;
76475;SDS011;65308;50.078;14.854;2024-01-30T10:23:28;24.42;;;11.50;;
76475;SDS011;65308;50.078;14.854;2024-01-30T10:25:55;21.90;;;12.23;;
76475;SDS011;65308;50.078;14.854;2024-01-30T10:28:22;23.10;;;12.05;;
76475;SDS011;65308;50.078;14.854;2024-01-30T10:30:56;25.65;;;12.65;;
76475;SDS011;65308;50.078;14.854;2024-01-30T10:33:24;22.70;;;12.38;;
76475;SDS011;65308;50.078;14.854;2024-01-30T10:35:52;25.58;;;13.18;;
76475;SDS011;65308;50.078;14.854;2024-01-30T10:38:23;27.42;;;12.27;;
76475;SDS011;65308;50.078;14.854;2024-01-30T10:40:53;29.58;;;13.35;;
76475;SDS011;65308;50.078;14.854;2024-01-30T10:43:23;27.17;;;13.05;;
76475;SDS011;65308;50.078;14.854;2024-01-30T10:45:54;31.95;;;13.65;;
76475;SDS011;65308;50.078;14.854;2024-01-30T10:48:25;26.52;;;12.07;;
76475;SDS011;65308;50.078;14.854;2024-01-30T10:50:56;26.20;;;12.35;;
76475;SDS011;65308;50.078;14.854;2024-01-30T10:53:27;26.40;;;12.82;;
76475;SDS011;65308;50.078;14.854;2024-01-30T10:55:54;24.52;;;11.80;;
76475;SDS011;65308;50.078;14.854;2024-01-30T10:58:22;28.10;;;12.93;;
76475;SDS011;65308;50.078;14.854;2024-01-30T11:00:48;25.63;;;12.18;;
76475;SDS011;65308;50.078;14.854;2024-01-30T11:03:17;23.40;;;12.00;;
76475;SDS011;65308;50.078;14.854;2024-01-30T11:05:48;28.98;;;12.90;;
76475;SDS011;65308;50.078;14.854;2024-01-30T11:08:22;26.83;;;12.70;;
76475;SDS011;65308;50.078;14.854;2024-01-30T11:10:56;25.67;;;12.32;;
76475;SDS011;65308;50.078;14.854;2024-01-30T11:13:27;27.38;;;14.35;;
76475;SDS011;65308;50.078;14.854;2024-01-30T11:16:08;27.27;;;13.23;;
76475;SDS011;65308;50.078;14.854;2024-01-30T11:18:41;26.17;;;13.15;;
76475;SDS011;65308;50.078;14.854;2024-01-30T11:21:08;27.60;;;12.80;;
76475;SDS011;65308;50.078;14.854;2024-01-30T11:23:35;26.00;;;12.48;;
76475;SDS011;65308;50.078;14.854;2024-01-30T11:26:03;27.73;;;12.77;;
76475;SDS011;65308;50.078;14.854;2024-01-30T11:28:34;26.20;;;12.30;;
76475;SDS011;65308;50.078;14.854;2024-01-30T11:31:04;28.67;;;13.95;;
76475;SDS011;65308;50.078;14.854;2024-01-30T11:33:32;26.00;;;12.90;;
76475;SDS011;65308;50.078;14.854;2024-01-30T11:35:59;28.23;;;13.80;;
76475;SDS011;65308;50.078;14.854;2024-01-30T11:38:27;26.13;;;13.07;;
76475;SDS011;65308;50.078;14.854;2024-01-30T11:40:55;29.45;;;12.43;;
76475;SDS011;65308;50.078;14.854;2024-01-30T11:43:23;26.70;;;12.15;;
76475;SDS011;65308;50.078;14.854;2024-01-30T11:45:50;25.67;;;13.20;;
76475;SDS011;65308;50.078;14.854;2024-01-30T11:48:18;25.08;;;12.50;;
76475;SDS011;65308;50.078;14.854;2024-01-30T11:50:45;24.73;;;11.30;;
76475;SDS011;65308;50.078;14.854;2024-01-30T11:53:11;21.27;;;11.18;;
76475;SDS011;65308;50.078;14.854;2024-01-30T11:55:39;23.08;;;11.68;;
76475;SDS011;65308;50.078;14.854;2024-01-30T11:58:06;22.20;;;10.55;;
76475;SDS011;65308;50.078;14.854;2024-01-30T12:00:37;20.05;;;11.07;;
76475;SDS011;65308;50.078;14.854;2024-01-30T12:03:04;23.05;;;11.18;;
76475;SDS011;65308;50.078;14.854;2024-01-30T12:05:32;18.65;;;10.40;;
76475;SDS011;65308;50.078;14.854;2024-01-30T12:07:59;21.27;;;10.68;;
76475;SDS011;65308;50.078;14.854;2024-01-30T12:10:26;20.77;;;10.77;;
76475;SDS011;65308;50.078;14.854;2024-01-30T12:12:54;18.73;;;9.70;;
76475;SDS011;65308;50.078;14.854;2024-01-30T12:15:21;18.42;;;9.63;;
76475;SDS011;65308;50.078;14.854;2024-01-30T12:17:50;18.33;;;10.20;;
76475;SDS011;65308;50.078;14.854;2024-01-30T12:20:29;20.40;;;10.32;;
76475;SDS011;65308;50.078;14.854;2024-01-30T12:22:56;19.90;;;9.70;;
76475;SDS011;65308;50.078;14.854;2024-01-30T12:25:23;26.40;;;12.52;;
76475;SDS011;65308;50.078;14.854;2024-01-30T12:27:50;22.98;;;11.13;;
76475;SDS011;65308;50.078;14.854;2024-01-30T12:30:17;20.58;;;9.50;;
76475;SDS011;65308;50.078;14.854;2024-01-30T12:32:45;17.30;;;9.55;;
76475;SDS011;65308;50.078;14.854;2024-01-30T12:35:15;18.75;;;9.40;;
76475;SDS011;65308;50.078;14.854;2024-01-30T12:37:43;25.23;;;11.63;;
76475;SDS011;65308;50.078;14.854;2024-01-30T12:42:39;20.73;;;11.32;;
76475;SDS011;65308;50.078;14.854;2024-01-30T12:45:08;21.85;;;12.43;;
76475;SDS011;65308;50.078;14.854;2024-01-30T12:47:35;26.40;;;12.48;;
76475;SDS011;65308;50.078;14.854;2024-01-30T12:50:02;25.55;;;12.10;;
76475;SDS011;65308;50.078;14.854;2024-01-30T12:52:31;24.67;;;12.23;;
76475;SDS011;65308;50.078;14.854;2024-01-30T12:54:58;27.30;;;13.82;;
76475;SDS011;65308;50.078;14.854;2024-01-30T12:57:24;28.85;;;13.43;;
76475;SDS011;65308;50.078;14.854;2024-01-30T12:59:51;29.23;;;13.82;;
76475;SDS011;65308;50.078;14.854;2024-01-30T13:02:18;32.55;;;14.48;;
76475;SDS011;65308;50.078;14.854;2024-01-30T13:04:45;28.42;;;14.02;;
76475;SDS011;65308;50.078;14.854;2024-01-30T13:07:14;33.70;;;14.63;;
76475;SDS011;65308;50.078;14.854;2024-01-30T13:09:42;29.85;;;13.98;;
76475;SDS011;65308;50.078;14.854;2024-01-30T13:12:09;27.75;;;13.60;;
76475;SDS011;65308;50.078;14.854;2024-01-30T13:14:35;30.77;;;14.35;;
76475;SDS011;65308;50.078;14.854;2024-01-30T13:17:02;27.88;;;12.95;;
76475;SDS011;65308;50.078;14.854;2024-01-30T13:19:29;25.65;;;12.63;;
76475;SDS011;65308;50.078;14.854;2024-01-30T13:21:56;29.58;;;14.05;;
76475;SDS011;65308;50.078;14.854;2024-01-30T13:24:23;24.08;;;11.57;;
76475;SDS011;65308;50.078;14.854;2024-01-30T13:26:51;26.45;;;13.07;;
76475;SDS011;65308;50.078;14.854;2024-01-30T13:29:18;25.00;;;12.57;;
76475;SDS011;65308;50.078;14.854;2024-01-30T13:31:46;27.92;;;13.48;;
76475;SDS011;65308;50.078;14.854;2024-01-30T13:34:13;27.45;;;13.60;;
76475;SDS011;65308;50.078;14.854;2024-01-30T13:36:40;26.20;;;12.52;;
76475;SDS011;65308;50.078;14.854;2024-01-30T13:39:07;29.08;;;12.95;;
76475;SDS011;65308;50.078;14.854;2024-01-30T13:41:35;24.00;;;12.25;;
76475;SDS011;65308;50.078;14.854;2024-01-30T13:44:06;25.38;;;12.38;;
76475;SDS011;65308;50.078;14.854;2024-01-30T13:46:33;26.38;;;13.00;;
76475;SDS011;65308;50.078;14.854;2024-01-30T13:49:00;29.27;;;12.70;;
76475;SDS011;65308;50.078;14.854;2024-01-30T13:51:27;27.88;;;12.60;;
76475;SDS011;65308;50.078;14.854;2024-01-30T13:53:54;29.30;;;12.60;;
76475;SDS011;65308;50.078;14.854;2024-01-30T13:56:20;26.70;;;12.90;;
76475;SDS011;65308;50.078;14.854;2024-01-30T13:58:47;24.77;;;12.77;;
76475;SDS011;65308;50.078;14.854;2024-01-30T14:01:16;20.75;;;10.80;;
76475;SDS011;65308;50.078;14.854;2024-01-30T14:03:43;24.35;;;12.27;;
76475;SDS011;65308;50.078;14.854;2024-01-30T14:06:09;26.83;;;12.95;;
76475;SDS011;65308;50.078;14.854;2024-01-30T14:08:37;25.58;;;12.07;;
76475;SDS011;65308;50.078;14.854;2024-01-30T14:11:04;32.05;;;13.45;;
76475;SDS011;65308;50.078;14.854;2024-01-30T14:13:32;25.83;;;12.63;;
76475;SDS011;65308;50.078;14.854;2024-01-30T14:15:58;28.80;;;13.07;;
76475;SDS011;65308;50.078;14.854;2024-01-30T14:18:26;23.50;;;12.40;;
76475;SDS011;65308;50.078;14.854;2024-01-30T14:20:53;26.73;;;12.48;;
76475;SDS011;65308;50.078;14.854;2024-01-30T14:23:20;29.10;;;12.63;;
76475;SDS011;65308;50.078;14.854;2024-01-30T14:25:47;26.42;;;12.85;;
76475;SDS011;65308;50.078;14.854;2024-01-30T14:28:13;26.77;;;12.23;;
76475;SDS011;65308;50.078;14.854;2024-01-30T14:30:40;29.77;;;12.80;;
76475;SDS011;65308;50.078;14.854;2024-01-30T14:33:07;25.60;;;12.93;;